createdAt,value
2018-07-05T00:00:01.129Z,90.95
2018-07-05T00:01:01.136Z,91.35
2018-07-05T00:02:01.138Z,91.44
2018-07-05T00:03:01.134Z,91.15
2018-07-05T00:04:01.134Z,91.53
2018-07-05T00:05:01.141Z,91.25
2018-07-05T00:06:01.141Z,91.63
2018-07-05T00:07:01.142Z,91.73
2018-07-05T00:08:01.144Z,91.92
2018-07-05T00:09:01.141Z,91.73
2018-07-05T00:10:01.141Z,92.11
2018-07-05T00:11:01.141Z,91.73
2018-07-05T00:12:01.142Z,91.73
2018-07-05T00:13:01.149Z,92.11
2018-07-05T00:14:01.149Z,91.92
2018-07-05T00:15:01.151Z,91.83
2018-07-05T00:16:01.151Z,91.63
2018-07-05T00:17:01.148Z,91.63
2018-07-05T00:18:01.149Z,91.35
2018-07-05T00:19:01.154Z,91.44
2018-07-05T00:20:01.155Z,92.16
2018-07-05T00:21:01.150Z,92.60
2018-07-05T00:22:01.152Z,92.55
2018-07-05T00:23:01.152Z,91.97
2018-07-05T00:24:01.152Z,91.88
2018-07-05T00:25:01.159Z,92.07
2018-07-05T00:26:01.159Z,92.26
2018-07-05T00:27:01.163Z,92.26
2018-07-05T00:28:01.161Z,92.36
2018-07-05T00:29:01.158Z,92.65
2018-07-05T00:30:01.159Z,92.65
2018-07-05T00:31:01.159Z,92.26
2018-07-05T00:32:01.160Z,93.04
2018-07-05T00:33:01.164Z,92.84
2018-07-05T00:34:01.167Z,92.84
2018-07-05T00:35:01.163Z,92.65
2018-07-05T00:36:01.162Z,92.94
2018-07-05T00:37:01.168Z,92.55
2018-07-05T00:38:01.168Z,92.94
2018-07-05T00:39:01.171Z,92.74
2018-07-05T00:40:01.170Z,92.46
2018-07-05T00:41:01.167Z,92.07
2018-07-05T00:42:01.168Z,92.16
2018-07-05T00:43:01.169Z,92.07
2018-07-05T00:44:01.170Z,91.59
2018-07-05T00:45:01.175Z,92.46
2018-07-05T00:46:01.177Z,92.36
2018-07-05T00:47:01.177Z,91.97
2018-07-05T00:48:01.177Z,92.36
2018-07-05T00:49:01.179Z,91.78
2018-07-05T00:50:01.174Z,92.36
2018-07-05T00:51:01.180Z,92.55
2018-07-05T00:52:01.182Z,92.55
2018-07-05T00:53:01.176Z,91.59
2018-07-05T00:54:01.179Z,91.39
2018-07-05T00:55:01.185Z,92.07
2018-07-05T00:56:01.179Z,92.16
2018-07-05T00:57:01.185Z,92.26
2018-07-05T00:58:01.186Z,92.94
2018-07-05T00:59:01.187Z,92.80
2018-07-05T01:00:01.187Z,92.80
2018-07-05T01:01:01.188Z,92.99
2018-07-05T01:02:01.185Z,93.28
2018-07-05T01:03:01.185Z,93.08
2018-07-05T01:04:01.191Z,93.37
2018-07-05T01:05:01.194Z,93.37
2018-07-05T01:06:01.195Z,93.28
2018-07-05T01:07:01.189Z,93.28
2018-07-05T01:08:01.189Z,92.89
2018-07-05T01:09:01.197Z,93.18
2018-07-05T01:10:01.196Z,93.47
2018-07-05T01:11:01.197Z,92.99
2018-07-05T01:12:01.197Z,93.28
2018-07-05T01:13:01.192Z,93.57
2018-07-05T01:14:01.197Z,93.66
2018-07-05T01:15:01.196Z,93.28
2018-07-05T01:16:01.194Z,93.47
2018-07-05T01:17:01.200Z,93.57
2018-07-05T01:18:01.202Z,93.66
2018-07-05T01:19:01.203Z,94.43
2018-07-05T01:20:01.202Z,94.05
2018-07-05T01:21:01.199Z,94.15
2018-07-05T01:22:01.199Z,93.66
2018-07-05T01:23:01.204Z,93.28
2018-07-05T01:24:01.205Z,93.28
2018-07-05T01:25:01.209Z,92.89
2018-07-05T01:26:01.203Z,93.08
2018-07-05T01:27:01.203Z,93.08
2018-07-05T01:28:01.204Z,93.37
2018-07-05T01:29:01.209Z,93.08
2018-07-05T01:30:01.210Z,93.37
2018-07-05T01:31:01.207Z,92.99
2018-07-05T01:32:01.206Z,93.37
2018-07-05T01:33:01.211Z,93.28
2018-07-05T01:34:01.213Z,93.08
2018-07-05T01:35:01.214Z,93.37
2018-07-05T01:36:01.214Z,93.18
2018-07-05T01:37:01.211Z,92.99
2018-07-05T01:38:01.211Z,93.28
2018-07-05T01:39:01.217Z,92.89
2018-07-05T01:40:01.217Z,93.80
2018-07-05T01:41:01.213Z,93.37
2018-07-05T01:42:01.217Z,93.57
2018-07-05T01:43:01.216Z,93.66
2018-07-05T01:44:01.215Z,93.37
2018-07-05T01:45:01.220Z,93.95
2018-07-05T01:46:01.223Z,93.57
2018-07-05T01:47:01.224Z,93.95
2018-07-05T01:48:01.224Z,93.18
2018-07-05T01:49:01.217Z,94.00
2018-07-05T01:50:01.219Z,93.57
2018-07-05T01:51:01.220Z,93.66
2018-07-05T01:52:01.220Z,93.57
2018-07-05T01:53:01.227Z,93.57
2018-07-05T01:54:01.228Z,93.90
2018-07-05T01:55:01.228Z,93.80
2018-07-05T01:56:01.226Z,93.37
2018-07-05T01:57:01.230Z,93.52
2018-07-05T01:58:01.238Z,94.24
2018-07-05T01:59:01.230Z,94.34
2018-07-05T02:00:01.230Z,94.82
2018-07-05T02:01:01.227Z,94.53
2018-07-05T02:02:01.228Z,94.87
2018-07-05T02:03:01.230Z,93.95
2018-07-05T02:04:01.230Z,94.53
2018-07-05T02:05:01.235Z,94.43
2018-07-05T02:06:01.235Z,94.63
2018-07-05T02:07:01.237Z,94.82
2018-07-05T02:08:01.239Z,94.53
2018-07-05T02:09:01.234Z,94.82
2018-07-05T02:10:01.235Z,94.43
2018-07-05T02:11:01.241Z,94.53
2018-07-05T02:12:01.240Z,94.63
2018-07-05T02:13:01.236Z,94.15
2018-07-05T02:14:01.243Z,94.34
2018-07-05T02:15:01.239Z,94.92
2018-07-05T02:16:01.248Z,94.92
2018-07-05T02:17:01.243Z,94.82
2018-07-05T02:18:01.245Z,95.01
2018-07-05T02:19:01.244Z,94.05
2018-07-05T02:20:01.245Z,94.82
2018-07-05T02:21:01.284Z,94.92
2018-07-05T02:22:01.243Z,94.43
2018-07-05T02:23:01.243Z,94.05
2018-07-05T02:24:01.245Z,94.34
2018-07-05T02:25:01.250Z,94.63
2018-07-05T02:26:01.253Z,94.63
2018-07-05T02:27:01.249Z,94.53
2018-07-05T02:28:01.246Z,94.53
2018-07-05T02:29:01.251Z,94.53
2018-07-05T02:30:01.252Z,94.92
2018-07-05T02:31:01.253Z,94.53
2018-07-05T02:32:01.252Z,94.82
2018-07-05T02:33:01.248Z,94.63
2018-07-05T02:34:01.249Z,94.53
2018-07-05T02:35:01.251Z,94.43
2018-07-05T02:36:01.252Z,94.63
2018-07-05T02:37:01.257Z,94.43
2018-07-05T02:38:01.258Z,94.63
2018-07-05T02:39:01.260Z,94.53
2018-07-05T02:40:01.257Z,94.34
2018-07-05T02:41:01.254Z,94.53
2018-07-05T02:42:01.255Z,94.53
2018-07-05T02:43:01.262Z,94.34
2018-07-05T02:44:01.270Z,94.53
2018-07-05T02:45:01.256Z,94.82
2018-07-05T02:46:01.259Z,93.66
2018-07-05T02:47:01.259Z,94.15
2018-07-05T02:48:01.259Z,93.95
2018-07-05T02:49:01.270Z,93.95
2018-07-05T02:50:01.265Z,94.15
2018-07-05T02:51:01.266Z,94.53
2018-07-05T02:52:01.265Z,94.63
2018-07-05T02:53:01.263Z,94.63
2018-07-05T02:54:01.262Z,94.73
2018-07-05T02:55:01.262Z,94.73
2018-07-05T02:56:01.263Z,94.43
2018-07-05T02:57:01.268Z,94.15
2018-07-05T02:58:01.269Z,94.24
2018-07-05T02:59:01.265Z,94.63
2018-07-05T03:00:01.264Z,94.53
2018-07-05T03:01:01.269Z,94.53
2018-07-05T03:02:01.270Z,95.01
2018-07-05T03:03:01.340Z,94.43
2018-07-05T03:04:01.274Z,94.53
2018-07-05T03:05:01.269Z,94.82
2018-07-05T03:06:01.268Z,94.53
2018-07-05T03:07:01.268Z,94.34
2018-07-05T03:08:01.268Z,94.53
2018-07-05T03:09:01.274Z,94.63
2018-07-05T03:10:01.274Z,94.05
2018-07-05T03:11:01.274Z,94.53
2018-07-05T03:12:01.280Z,95.21
2018-07-05T03:13:01.271Z,94.43
2018-07-05T03:14:01.271Z,94.53
2018-07-05T03:15:01.280Z,94.43
2018-07-05T03:16:01.277Z,94.34
2018-07-05T03:17:01.273Z,94.53
2018-07-05T03:18:01.275Z,94.15
2018-07-05T03:19:01.274Z,94.63
2018-07-05T03:20:01.274Z,93.85
2018-07-05T03:21:01.286Z,94.34
2018-07-05T03:22:01.280Z,93.95
2018-07-05T03:23:01.283Z,94.43
2018-07-05T03:24:01.282Z,94.05
2018-07-05T03:25:01.277Z,94.73
2018-07-05T03:26:01.278Z,94.53
2018-07-05T03:27:01.279Z,94.63
2018-07-05T03:28:01.278Z,94.73
2018-07-05T03:29:01.284Z,93.95
2018-07-05T03:30:01.286Z,94.73
2018-07-05T03:31:01.280Z,94.63
2018-07-05T03:32:01.283Z,94.05
2018-07-05T03:33:01.285Z,94.63
2018-07-05T03:34:01.286Z,93.95
2018-07-05T03:35:01.288Z,93.95
2018-07-05T03:36:01.288Z,94.53
2018-07-05T03:37:01.285Z,94.53
2018-07-05T03:38:01.284Z,94.73
2018-07-05T03:39:01.285Z,94.92
2018-07-05T03:40:01.285Z,94.63
2018-07-05T03:41:01.291Z,94.63
2018-07-05T03:42:01.291Z,94.63
2018-07-05T03:43:01.294Z,94.92
2018-07-05T03:44:01.293Z,94.82
2018-07-05T03:45:01.316Z,94.63
2018-07-05T03:46:01.288Z,94.15
2018-07-05T03:47:01.295Z,93.66
2018-07-05T03:48:01.295Z,94.34
2018-07-05T03:49:01.291Z,94.82
2018-07-05T03:50:01.291Z,94.43
2018-07-05T03:51:01.294Z,94.63
2018-07-05T03:52:01.292Z,95.01
2018-07-05T03:53:01.297Z,93.85
2018-07-05T03:54:01.298Z,93.85
2018-07-05T03:55:01.299Z,93.47
2018-07-05T03:56:01.299Z,92.99
2018-07-05T03:57:01.295Z,93.37
2018-07-05T03:58:01.296Z,93.47
2018-07-05T03:59:01.297Z,93.47
2018-07-05T04:00:01.302Z,93.76
2018-07-05T04:01:01.302Z,93.57
2018-07-05T04:02:01.304Z,94.05
2018-07-05T04:03:01.300Z,93.28
2018-07-05T04:04:01.298Z,92.80
2018-07-05T04:05:01.305Z,91.98
2018-07-05T04:06:01.306Z,92.99
2018-07-05T04:07:01.306Z,92.94
2018-07-05T04:08:01.306Z,92.08
2018-07-05T04:09:01.301Z,92.36
2018-07-05T04:10:01.305Z,92.08
2018-07-05T04:11:01.303Z,92.08
2018-07-05T04:12:01.303Z,92.27
2018-07-05T04:13:01.308Z,91.40
2018-07-05T04:14:01.310Z,91.60
2018-07-05T04:15:01.311Z,91.74
2018-07-05T04:16:01.314Z,91.45
2018-07-05T04:17:01.308Z,91.45
2018-07-05T04:18:01.306Z,91.93
2018-07-05T04:19:01.312Z,91.93
2018-07-05T04:20:01.312Z,92.32
2018-07-05T04:21:01.308Z,92.22
2018-07-05T04:22:01.310Z,91.83
2018-07-05T04:23:01.309Z,92.03
2018-07-05T04:24:01.344Z,92.37
2018-07-05T04:25:01.324Z,92.80
2018-07-05T04:26:01.314Z,93.19
2018-07-05T04:27:01.320Z,94.34
2018-07-05T04:28:01.317Z,94.34
2018-07-05T04:29:01.311Z,94.15
2018-07-05T04:30:01.311Z,94.06
2018-07-05T04:31:01.312Z,94.44
2018-07-05T04:32:01.313Z,95.11
2018-07-05T04:33:01.321Z,95.02
2018-07-05T04:34:01.320Z,95.50
2018-07-05T04:35:01.314Z,95.31
2018-07-05T04:36:01.313Z,94.63
2018-07-05T04:37:01.318Z,94.54
2018-07-05T04:38:01.320Z,93.96
2018-07-05T04:39:01.320Z,92.99
2018-07-05T04:40:01.319Z,93.38
2018-07-05T04:41:01.316Z,92.61
2018-07-05T04:42:01.317Z,92.80
2018-07-05T04:43:01.318Z,92.99
2018-07-05T04:44:01.317Z,93.96
2018-07-05T04:45:01.322Z,93.96
2018-07-05T04:46:01.322Z,94.15
2018-07-05T04:47:01.324Z,94.34
2018-07-05T04:48:01.389Z,93.57
2018-07-05T04:49:01.318Z,93.48
2018-07-05T04:50:01.319Z,94.82
2018-07-05T04:51:01.326Z,94.15
2018-07-05T04:52:01.323Z,93.91
2018-07-05T04:53:01.320Z,94.01
2018-07-05T04:54:01.322Z,94.63
2018-07-05T04:55:01.322Z,94.73
2018-07-05T04:56:01.321Z,94.92
2018-07-05T04:57:01.326Z,95.40
2018-07-05T04:58:01.327Z,95.21
2018-07-05T04:59:01.328Z,95.02
2018-07-05T05:00:01.327Z,94.92
2018-07-05T05:01:01.327Z,94.54
2018-07-05T05:02:01.323Z,94.63
2018-07-05T05:03:01.325Z,94.54
2018-07-05T05:04:01.323Z,93.96
2018-07-05T05:05:01.328Z,92.71
2018-07-05T05:06:01.330Z,93.33
2018-07-05T05:07:01.336Z,93.48
2018-07-05T05:08:01.326Z,92.56
2018-07-05T05:09:01.331Z,92.94
2018-07-05T05:10:01.332Z,92.75
2018-07-05T05:11:01.334Z,92.36
2018-07-05T05:12:01.333Z,92.56
2018-07-05T05:13:01.329Z,93.47
2018-07-05T05:14:01.328Z,93.28
2018-07-05T05:15:01.376Z,92.99
2018-07-05T05:16:01.329Z,92.89
2018-07-05T05:17:01.337Z,92.22
2018-07-05T05:18:01.337Z,91.64
2018-07-05T05:19:01.387Z,91.20
2018-07-05T05:20:01.336Z,90.72
2018-07-05T05:21:01.334Z,90.38
2018-07-05T05:22:01.336Z,89.90
2018-07-05T05:23:01.342Z,89.71
2018-07-05T05:24:01.342Z,89.61
2018-07-05T05:25:01.338Z,89.32
2018-07-05T05:26:01.339Z,89.95
2018-07-05T05:27:01.342Z,89.95
2018-07-05T05:28:01.344Z,89.95
2018-07-05T05:29:01.347Z,89.61
2018-07-05T05:30:01.455Z,89.31
2018-07-05T05:31:01.351Z,88.83
2018-07-05T05:32:01.352Z,88.15
2018-07-05T05:33:01.348Z,86.85
2018-07-05T05:34:01.350Z,86.65
2018-07-05T05:35:01.350Z,85.69
2018-07-05T05:36:01.353Z,86.51
2018-07-05T05:37:01.357Z,85.63
2018-07-05T05:38:01.361Z,85.44
2018-07-05T05:39:01.382Z,85.53
2018-07-05T05:40:01.359Z,84.38
2018-07-05T05:41:01.364Z,83.99
2018-07-05T05:42:01.367Z,83.84
2018-07-05T05:43:01.370Z,83.49
2018-07-05T05:44:01.371Z,82.66
2018-07-05T05:45:01.368Z,83.15
2018-07-05T05:46:01.371Z,81.79
2018-07-05T05:47:01.374Z,81.30
2018-07-05T05:48:01.386Z,81.02
2018-07-05T05:49:01.382Z,80.92
2018-07-05T05:50:01.384Z,80.88
2018-07-05T05:51:01.387Z,81.40
2018-07-05T05:52:01.388Z,81.37
2018-07-05T05:53:01.386Z,80.88
2018-07-05T05:54:01.388Z,80.59
2018-07-05T05:55:01.395Z,80.94
2018-07-05T05:56:01.397Z,80.84
2018-07-05T05:57:01.396Z,81.52
2018-07-05T05:58:01.397Z,81.81
2018-07-05T05:59:01.402Z,81.90
2018-07-05T06:00:01.403Z,82.25
2018-07-05T06:01:01.410Z,82.83
2018-07-05T06:02:01.413Z,82.83
2018-07-05T06:03:01.414Z,83.12
2018-07-05T06:04:01.417Z,83.26
2018-07-05T06:05:01.413Z,83.06
2018-07-05T06:06:01.416Z,83.64
2018-07-05T06:07:01.420Z,83.06
2018-07-05T06:08:01.422Z,83.31
2018-07-05T06:09:01.427Z,82.93
2018-07-05T06:10:01.429Z,82.87
2018-07-05T06:11:01.430Z,82.73
2018-07-05T06:12:01.428Z,83.16
2018-07-05T06:13:01.436Z,82.73
2018-07-05T06:14:01.438Z,82.93
2018-07-05T06:15:01.440Z,83.31
2018-07-05T06:16:01.442Z,83.61
2018-07-05T06:17:01.440Z,83.31
2018-07-05T06:18:01.443Z,84.09
2018-07-05T06:19:01.444Z,83.89
2018-07-05T06:20:01.448Z,83.70
2018-07-05T06:21:01.452Z,84.38
2018-07-05T06:22:01.454Z,84.47
2018-07-05T06:23:01.455Z,84.82
2018-07-05T06:24:01.457Z,84.53
2018-07-05T06:25:01.455Z,84.05
2018-07-05T06:26:01.457Z,83.95
2018-07-05T06:27:01.462Z,83.85
2018-07-05T06:28:01.464Z,84.72
2018-07-05T06:29:01.463Z,85.30
2018-07-05T06:30:01.463Z,84.14
2018-07-05T06:31:01.466Z,85.26
2018-07-05T06:32:01.466Z,84.74
2018-07-05T06:33:01.473Z,84.93
2018-07-05T06:34:01.516Z,86.18
2018-07-05T06:35:01.476Z,86.86
2018-07-05T06:36:01.478Z,86.38
2018-07-05T06:37:01.473Z,87.73
2018-07-05T06:38:01.476Z,88.11
2018-07-05T06:39:01.478Z,88.11
2018-07-05T06:40:01.478Z,88.89
2018-07-05T06:41:01.483Z,88.26
2018-07-05T06:42:01.484Z,88.17
2018-07-05T06:43:01.484Z,88.75
2018-07-05T06:44:01.482Z,88.89
2018-07-05T06:45:01.488Z,89.18
2018-07-05T06:46:01.490Z,90.44
2018-07-05T06:47:01.491Z,90.72
2018-07-05T06:48:01.493Z,91.11
2018-07-05T06:49:01.489Z,90.77
2018-07-05T06:50:01.491Z,91.25
2018-07-05T06:51:01.497Z,90.82
2018-07-05T06:52:01.492Z,91.25
2018-07-05T06:53:01.547Z,91.93
2018-07-05T06:54:01.504Z,92.50
2018-07-05T06:55:01.500Z,92.60
2018-07-05T06:56:01.501Z,92.32
2018-07-05T06:57:01.497Z,92.80
2018-07-05T06:58:01.497Z,92.99
2018-07-05T06:59:01.508Z,93.08
2018-07-05T07:00:01.509Z,93.08
2018-07-05T07:01:01.501Z,92.80
2018-07-05T07:02:01.502Z,92.99
2018-07-05T07:03:01.503Z,92.80
2018-07-05T07:04:01.506Z,92.94
2018-07-05T07:05:01.509Z,92.41
2018-07-05T07:06:01.509Z,91.93
2018-07-05T07:07:01.512Z,92.50
2018-07-05T07:08:01.549Z,91.93
2018-07-05T07:09:01.519Z,90.67
2018-07-05T07:10:01.510Z,90.19
2018-07-05T07:11:01.512Z,91.93
2018-07-05T07:12:01.511Z,92.80
2018-07-05T07:13:01.519Z,93.37
2018-07-05T07:14:01.519Z,93.18
2018-07-05T07:15:01.517Z,93.13
2018-07-05T07:16:01.548Z,93.52
2018-07-05T07:17:01.523Z,93.04
2018-07-05T07:18:01.524Z,92.26
2018-07-05T07:19:01.523Z,92.65
2018-07-05T07:20:01.525Z,93.13
2018-07-05T07:21:01.522Z,92.89
2018-07-05T07:22:01.528Z,93.37
2018-07-05T07:23:01.525Z,92.69
2018-07-05T07:24:01.528Z,92.50
2018-07-05T07:25:01.530Z,91.05
2018-07-05T07:26:01.532Z,91.15
2018-07-05T07:27:01.534Z,91.05
2018-07-05T07:28:01.535Z,90.37
2018-07-05T07:29:01.531Z,91.29
2018-07-05T07:30:01.562Z,91.58
2018-07-05T07:31:01.541Z,89.94
2018-07-05T07:32:01.607Z,90.37
2018-07-05T07:33:01.540Z,90.85
2018-07-05T07:34:01.540Z,89.64
2018-07-05T07:35:01.541Z,89.15
2018-07-05T07:36:01.541Z,88.95
2018-07-05T07:37:01.553Z,86.23
2018-07-05T07:38:01.552Z,84.09
2018-07-05T07:39:01.554Z,81.49
2018-07-05T07:40:01.556Z,79.59
2018-07-05T07:41:01.554Z,78.42
2018-07-05T07:42:01.558Z,77.14
2018-07-05T07:43:01.560Z,74.97
2018-07-05T07:44:01.564Z,72.74
2018-07-05T07:45:01.574Z,69.07
2018-07-05T07:46:01.578Z,66.47
2018-07-05T07:47:01.577Z,64.58
2018-07-05T07:48:01.581Z,62.85
2018-07-05T07:49:01.590Z,62.10
2018-07-05T07:50:01.598Z,60.96
2018-07-05T07:51:01.601Z,61.60
2018-07-05T07:52:01.607Z,60.66
2018-07-05T07:53:01.609Z,60.73
2018-07-05T07:54:01.616Z,60.44
2018-07-05T07:55:01.623Z,60.08
2018-07-05T07:56:01.630Z,60.52
2018-07-05T07:57:01.642Z,60.97
2018-07-05T07:58:01.650Z,61.95
2018-07-05T07:59:01.658Z,63.77
2018-07-05T08:00:01.666Z,63.15
2018-07-05T08:01:01.667Z,64.69
2018-07-05T08:02:01.675Z,66.14
2018-07-05T08:03:01.686Z,66.44
2018-07-05T08:04:01.694Z,67.02
2018-07-05T08:05:01.696Z,66.93
2018-07-05T08:06:01.705Z,64.72
2018-07-05T08:07:01.712Z,64.42
2018-07-05T08:08:01.789Z,64.58
2018-07-05T08:09:01.733Z,64.58
2018-07-05T08:10:01.740Z,64.58
2018-07-05T08:11:01.747Z,65.14
2018-07-05T08:12:01.755Z,64.32
2018-07-05T08:13:01.757Z,63.93
2018-07-05T08:14:01.765Z,64.12
2018-07-05T08:15:01.810Z,64.03
2018-07-05T08:16:01.779Z,63.93
2018-07-05T08:17:01.794Z,63.18
2018-07-05T08:18:01.800Z,62.60
2018-07-05T08:19:01.804Z,62.76
2018-07-05T08:20:01.811Z,60.63
2018-07-05T08:21:01.824Z,60.57
2018-07-05T08:22:01.831Z,59.17
2018-07-05T08:23:01.840Z,59.56
2018-07-05T08:24:01.851Z,59.43
2018-07-05T08:25:01.853Z,59.59
2018-07-05T08:26:01.859Z,58.67
2018-07-05T08:27:01.871Z,56.82
2018-07-05T08:28:01.875Z,55.10
2018-07-05T08:29:01.901Z,53.29
2018-07-05T08:30:01.900Z,51.10
2018-07-05T08:31:01.911Z,49.57
2018-07-05T08:32:01.919Z,48.66
2018-07-05T08:33:01.923Z,47.32
2018-07-05T08:34:01.935Z,46.75
2018-07-05T08:35:01.951Z,44.90
2018-07-05T08:36:01.962Z,44.45
2018-07-05T08:37:01.969Z,43.38
2018-07-05T08:38:01.981Z,42.60
2018-07-05T08:39:01.995Z,41.49
2018-07-05T08:40:02.019Z,41.00
2018-07-05T08:41:02.026Z,41.61
2018-07-05T08:42:02.040Z,41.49
2018-07-05T08:43:02.054Z,41.12
2018-07-05T08:44:02.071Z,41.49
2018-07-05T08:45:02.079Z,41.12
2018-07-05T08:46:02.094Z,40.92
2018-07-05T08:47:02.110Z,41.67
2018-07-05T08:48:02.125Z,42.05
2018-07-05T08:49:02.145Z,43.19
2018-07-05T08:50:02.157Z,43.23
2018-07-05T08:51:02.169Z,44.25
2018-07-05T08:52:02.186Z,44.49
2018-07-05T08:53:02.203Z,44.29
2018-07-05T08:54:02.218Z,44.45
2018-07-05T08:55:02.235Z,45.19
2018-07-05T08:56:02.250Z,46.28
2018-07-05T08:57:02.261Z,45.93
2018-07-05T08:58:02.276Z,45.53
2018-07-05T08:59:02.291Z,45.65
2018-07-05T09:00:02.306Z,45.51
2018-07-05T09:01:02.326Z,46.18
2018-07-05T09:02:02.341Z,46.59
2018-07-05T09:03:02.361Z,46.55
2018-07-05T09:04:02.375Z,45.68
2018-07-05T09:05:02.384Z,45.45
2018-07-05T09:06:02.400Z,45.96
2018-07-05T09:07:02.421Z,47.02
2018-07-05T09:08:02.437Z,46.57
2018-07-05T09:09:02.449Z,45.24
2018-07-05T09:10:02.463Z,45.87
2018-07-05T09:11:02.477Z,44.57
2018-07-05T09:12:02.495Z,44.62
2018-07-05T09:13:02.512Z,44.62
2018-07-05T09:14:02.529Z,45.59
2018-07-05T09:15:02.545Z,46.72
2018-07-05T09:16:02.562Z,45.41
2018-07-05T09:17:02.575Z,44.53
2018-07-05T09:18:02.630Z,45.68
2018-07-05T09:19:02.603Z,45.59
2018-07-05T09:20:02.620Z,45.68
2018-07-05T09:21:02.645Z,46.72
2018-07-05T09:22:02.657Z,46.28
2018-07-05T09:23:02.676Z,46.64
2018-07-05T09:24:02.683Z,44.69
2018-07-05T09:25:02.705Z,44.47
2018-07-05T09:26:02.721Z,44.39
2018-07-05T09:27:02.736Z,43.66
2018-07-05T09:28:02.753Z,45.35
2018-07-05T09:29:02.765Z,43.93
2018-07-05T09:30:02.780Z,43.24
2018-07-05T09:31:02.798Z,46.04
2018-07-05T09:32:02.814Z,47.36
2018-07-05T09:33:02.832Z,47.00
2018-07-05T09:34:02.861Z,47.34
2018-07-05T09:35:02.863Z,47.59
2018-07-05T09:36:02.881Z,49.82
2018-07-05T09:37:02.911Z,49.75
2018-07-05T09:38:02.905Z,49.46
2018-07-05T09:39:02.925Z,49.55
2018-07-05T09:40:02.941Z,48.85
2018-07-05T09:41:02.949Z,48.94
2018-07-05T09:42:02.962Z,49.97
2018-07-05T09:43:02.976Z,52.27
2018-07-05T09:44:02.990Z,52.10
2018-07-05T09:45:03.008Z,51.90
2018-07-05T09:46:03.024Z,51.34
2018-07-05T09:47:03.089Z,50.93
2018-07-05T09:48:03.051Z,50.24
2018-07-05T09:49:03.056Z,51.03
2018-07-05T09:50:03.070Z,51.98
2018-07-05T09:51:03.082Z,51.42
2018-07-05T09:52:03.092Z,51.32
2018-07-05T09:53:03.111Z,52.25
2018-07-05T09:54:03.122Z,52.37
2018-07-05T09:55:03.130Z,51.88
2018-07-05T09:56:03.140Z,51.78
2018-07-05T09:57:03.159Z,52.81
2018-07-05T09:58:03.196Z,51.86
2018-07-05T09:59:03.180Z,51.95
2018-07-05T10:00:03.190Z,52.88
2018-07-05T10:01:03.199Z,53.30
2018-07-05T10:02:03.209Z,53.08
2018-07-05T10:03:03.220Z,54.28
2018-07-05T10:04:03.229Z,53.23
2018-07-05T10:05:03.253Z,53.06
2018-07-05T10:06:03.256Z,50.68
2018-07-05T10:07:03.270Z,49.46
2018-07-05T10:08:03.278Z,48.74
2018-07-05T10:09:03.284Z,48.65
2018-07-05T10:10:03.295Z,48.77
2018-07-05T10:11:03.311Z,48.47
2018-07-05T10:12:03.322Z,47.69
2018-07-05T10:13:03.440Z,46.46
2018-07-05T10:14:03.343Z,44.79
2018-07-05T10:15:03.354Z,46.04
2018-07-05T10:16:03.366Z,46.73
2018-07-05T10:17:03.383Z,46.01
2018-07-05T10:18:03.396Z,44.29
2018-07-05T10:19:03.408Z,44.15
2018-07-05T10:20:03.421Z,45.18
2018-07-05T10:21:03.431Z,46.81
2018-07-05T10:22:03.445Z,46.88
2018-07-05T10:23:03.457Z,47.25
2018-07-05T10:24:03.468Z,45.99
2018-07-05T10:25:03.488Z,46.73
2018-07-05T10:26:03.501Z,47.77
2018-07-05T10:27:03.620Z,48.94
2018-07-05T10:28:03.528Z,48.41
2018-07-05T10:29:03.545Z,49.43
2018-07-05T10:30:03.558Z,49.16
2018-07-05T10:31:03.571Z,48.60
2018-07-05T10:32:03.585Z,46.95
2018-07-05T10:33:03.595Z,46.93
2018-07-05T10:34:03.609Z,47.59
2018-07-05T10:35:03.625Z,46.63
2018-07-05T10:36:03.639Z,46.88
2018-07-05T10:37:03.664Z,48.03
2018-07-05T10:38:03.671Z,49.63
2018-07-05T10:39:03.684Z,50.61
2018-07-05T10:40:03.697Z,51.32
2018-07-05T10:41:03.711Z,48.80
2018-07-05T10:42:03.721Z,48.38
2018-07-05T10:43:03.739Z,48.97
2018-07-05T10:44:03.752Z,49.21
2018-07-05T10:45:03.761Z,48.92
2018-07-05T10:46:03.801Z,48.65
2018-07-05T10:47:03.789Z,49.46
2018-07-05T10:48:03.800Z,50.81
2018-07-05T10:49:03.818Z,49.29
2018-07-05T10:50:03.833Z,48.67
2018-07-05T10:51:03.846Z,48.38
2018-07-05T10:52:03.859Z,47.77
2018-07-05T10:53:03.866Z,48.97
2018-07-05T10:54:03.879Z,49.80
2018-07-05T10:55:03.892Z,49.68
2018-07-05T10:56:03.904Z,50.63
2018-07-05T10:57:03.922Z,50.93
2018-07-05T10:58:03.935Z,49.97
2018-07-05T10:59:03.944Z,49.41
2018-07-05T11:00:03.955Z,49.38
2018-07-05T11:01:03.994Z,49.09
2018-07-05T11:02:03.984Z,50.44
2018-07-05T11:03:03.998Z,51.29
2018-07-05T11:04:04.012Z,52.12
2018-07-05T11:05:04.017Z,52.51
2018-07-05T11:06:04.028Z,52.71
2018-07-05T11:07:04.062Z,50.88
2018-07-05T11:08:04.051Z,50.39
2018-07-05T11:09:04.067Z,51.71
2018-07-05T11:10:04.080Z,52.49
2018-07-05T11:11:04.092Z,53.64
2018-07-05T11:12:04.102Z,53.66
2018-07-05T11:13:04.107Z,53.34
2018-07-05T11:14:04.120Z,52.98
2018-07-05T11:15:04.139Z,52.49
2018-07-05T11:16:04.144Z,52.59
2018-07-05T11:17:04.150Z,52.78
2018-07-05T11:18:04.160Z,52.59
2018-07-05T11:19:04.171Z,52.66
2018-07-05T11:20:04.179Z,53.71
2018-07-05T11:21:04.193Z,54.27
2018-07-05T11:22:04.206Z,55.44
2018-07-05T11:23:04.212Z,55.71
2018-07-05T11:24:04.220Z,55.41
2018-07-05T11:25:04.225Z,56.22
2018-07-05T11:26:04.236Z,56.20
2018-07-05T11:27:04.245Z,56.90
2018-07-05T11:28:04.251Z,56.02
2018-07-05T11:29:04.266Z,56.02
2018-07-05T11:30:04.275Z,55.37
2018-07-05T11:31:04.278Z,54.88
2018-07-05T11:32:04.286Z,54.79
2018-07-05T11:33:04.300Z,55.27
2018-07-05T11:34:04.307Z,55.18
2018-07-05T11:35:04.315Z,56.41
2018-07-05T11:36:04.321Z,56.22
2018-07-05T11:37:04.326Z,55.08
2018-07-05T11:38:04.335Z,54.98
2018-07-05T11:39:04.342Z,55.44
2018-07-05T11:40:04.349Z,55.27
2018-07-05T11:41:04.362Z,55.27
2018-07-05T11:42:04.370Z,55.08
2018-07-05T11:43:04.379Z,55.08
2018-07-05T11:44:04.385Z,54.91
2018-07-05T11:45:04.389Z,54.42
2018-07-05T11:46:04.397Z,54.32
2018-07-05T11:47:04.410Z,53.66
2018-07-05T11:48:04.419Z,53.37
2018-07-05T11:49:04.420Z,53.27
2018-07-05T11:50:04.428Z,53.37
2018-07-05T11:51:04.436Z,53.76
2018-07-05T11:52:04.443Z,52.69
2018-07-05T11:53:04.456Z,52.78
2018-07-05T11:54:04.465Z,51.90
2018-07-05T11:55:04.480Z,51.81
2018-07-05T11:56:04.479Z,53.05
2018-07-05T11:57:04.483Z,52.73
2018-07-05T11:58:04.496Z,53.34
2018-07-05T11:59:04.499Z,53.74
2018-07-05T12:00:04.506Z,53.71
2018-07-05T12:01:04.524Z,53.64
2018-07-05T12:02:04.551Z,53.54
2018-07-05T12:03:04.532Z,53.93
2018-07-05T12:04:04.564Z,54.69
2018-07-05T12:05:04.551Z,54.79
2018-07-05T12:06:04.559Z,54.69
2018-07-05T12:07:04.565Z,55.08
2018-07-05T12:08:04.575Z,54.98
2018-07-05T12:09:04.577Z,55.37
2018-07-05T12:10:04.584Z,54.88
2018-07-05T12:11:04.593Z,55.18
2018-07-05T12:12:04.603Z,55.18
2018-07-05T12:13:04.620Z,55.34
2018-07-05T12:14:04.628Z,55.34
2018-07-05T12:15:04.627Z,55.05
2018-07-05T12:16:04.634Z,55.08
2018-07-05T12:17:04.637Z,55.63
2018-07-05T12:18:04.644Z,55.76
2018-07-05T12:19:04.657Z,55.96
2018-07-05T12:20:04.664Z,55.10
2018-07-05T12:21:04.668Z,54.61
2018-07-05T12:22:04.675Z,54.22
2018-07-05T12:23:04.682Z,53.76
2018-07-05T12:24:04.732Z,53.17
2018-07-05T12:25:04.703Z,53.37
2018-07-05T12:26:04.710Z,53.66
2018-07-05T12:27:04.722Z,53.83
2018-07-05T12:28:04.725Z,53.66
2018-07-05T12:29:04.746Z,53.27
2018-07-05T12:30:04.737Z,53.93
2018-07-05T12:31:04.745Z,53.17
2018-07-05T12:32:04.752Z,53.54
2018-07-05T12:33:04.764Z,53.83
2018-07-05T12:34:04.775Z,54.32
2018-07-05T12:35:04.775Z,54.42
2018-07-05T12:36:04.781Z,54.61
2018-07-05T12:37:04.794Z,54.69
2018-07-05T12:38:04.854Z,54.79
2018-07-05T12:39:04.811Z,54.39
2018-07-05T12:40:04.817Z,54.22
2018-07-05T12:41:04.821Z,52.95
2018-07-05T12:42:04.829Z,53.44
2018-07-05T12:43:04.837Z,52.66
2018-07-05T12:44:04.843Z,52.86
2018-07-05T12:45:04.856Z,52.27
2018-07-05T12:46:04.868Z,53.15
2018-07-05T12:47:04.871Z,53.25
2018-07-05T12:48:04.878Z,52.88
2018-07-05T12:49:04.887Z,52.39
2018-07-05T12:50:04.890Z,53.47
2018-07-05T12:51:04.901Z,53.25
2018-07-05T12:52:04.909Z,53.15